Historique des stations

Station météo de Orçay

Altitude de la station : 145 m







Données météorologiques pour le 28/09/2021
Date
Heure
Températures Humidité Point de rosée Vitesse
du vent
Direction Rafales Windchill Pression Pluviométrie
Cumul
Date
Heure
Températures Humidité Point de rosée Vitesse
du vent
Direction Rafales Windchill Pression Pluviométrie
Cumul
28/09/2021 18:4418.4 °C69 %12.8 °C-O13 km/h18.3 1022 hPa-
28/09/2021 18:2919.1 °C64 %12.2 °C-O13 km/h18.9 1022 hPa-
28/09/2021 18:1419.7 °C61 %11.7 °C-O13 km/h19.4 1022 hPa-
28/09/2021 17:5920.0 °C58 %11.1 °C2 km/hO13 km/h20.0 1022 hPa-
28/09/2021 17:4419.8 °C62 %12.2 °C-O13 km/h20.0 1022 hPa-
28/09/2021 17:2919.6 °C58 %11.1 °C-O13 km/h19.4 1022 hPa-
28/09/2021 17:1419.2 °C61 %11.1 °C-O13 km/h19.4 1022 hPa-
28/09/2021 16:5919.1 °C62 %11.7 °C-O13 km/h18.9 1022 hPa-
28/09/2021 16:4418.8 °C61 %11.1 °C2 km/hO13 km/h18.9 1022 hPa-
28/09/2021 16:2918.5 °C65 %11.7 °C-O13 km/h18.3 1022 hPa-
28/09/2021 16:1418.4 °C63 %11.1 °C-O13 km/h18.3 1023 hPa-
28/09/2021 15:5918.5 °C61 %10.6 °C2 km/hO13 km/h18.3 1023 hPa-
28/09/2021 15:4418.6 °C61 %10.6 °C2 km/hO13 km/h18.3 1023 hPa-
28/09/2021 15:2918.8 °C61 %11.1 °C3 km/hNO13 km/h18.9 1023 hPa-
28/09/2021 15:1418.7 °C60 %10.6 °C2 km/hSSO13 km/h18.9 1023 hPa-
28/09/2021 14:5918.8 °C62 %11.1 °C6 km/hSO13 km/h18.9 1023 hPa-
28/09/2021 14:4418.6 °C62 %11.1 °C3 km/hSSO13 km/h18.3 1023 hPa-
28/09/2021 14:2918.5 °C64 %11.7 °C3 km/hSO13 km/h18.3 1023 hPa-
28/09/2021 14:1518.4 °C63 %11.1 °C3 km/hOSO13 km/h18.3 1024 hPa-
28/09/2021 14:0018.7 °C63 %11.7 °C3 km/hOSO13 km/h18.9 1024 hPa-
28/09/2021 13:4518.4 °C67 %12.2 °C3 km/hSO13 km/h18.3 1024 hPa-
28/09/2021 13:3018.1 °C65 %11.1 °C5 km/hSSO13 km/h18.3 1024 hPa-
28/09/2021 13:1417.8 °C68 %11.7 °C8 km/hOSO11 km/h17.8 1025 hPa-
28/09/2021 12:5917.2 °C70 %11.7 °C2 km/hSO10 km/h17.2 1025 hPa-
28/09/2021 12:4416.8 °C75 %12.2 °C2 km/hSO8 km/h16.7 1025 hPa-
28/09/2021 12:2916.1 °C80 %12.8 °C3 km/hSE6 km/h16.1 1025 hPa-
28/09/2021 12:1415.1 °C82 %12.2 °C-ONO5 km/h15.0 1025 hPa-
28/09/2021 11:5914.3 °C91 %12.8 °C-ONO5 km/h14.4 1025 hPa-
28/09/2021 11:4413.4 °C96 %12.8 °C-ONO5 km/h13.3 1025 hPa-
28/09/2021 11:2912.9 °C96 %12.2 °C-ONO5 km/h12.8 1025 hPa-
28/09/2021 11:1412.6 °C96 %12.2 °C-ONO5 km/h12.8 1025 hPa-
28/09/2021 10:5912.4 °C97 %12.2 °C-ONO5 km/h12.2 1025 hPa-
28/09/2021 10:4411.8 °C97 %11.1 °C-ONO5 km/h11.7 1026 hPa-
28/09/2021 10:2911.2 °C97 %10.6 °C-ONO5 km/h11.1 1025 hPa-
28/09/2021 10:1410.4 °C97 %10.0 °C-ONO5 km/h10.6 1025 hPa-
28/09/2021 09:5910.0 °C96 %9.4 °C-ONO5 km/h10.0 1025 hPa-
28/09/2021 09:449.3 °C96 %8.9 °C-ONO5 km/h9.4 1025 hPa-
28/09/2021 09:298.4 °C96 %7.8 °C-ONO5 km/h8.3 1025 hPa-
28/09/2021 09:147.5 °C95 %6.7 °C-ONO5 km/h7.8 1025 hPa-
28/09/2021 08:596.9 °C94 %6.1 °C-ONO5 km/h7.2 1026 hPa-
28/09/2021 08:446.5 °C93 %5.6 °C-ONO5 km/h6.7 1025 hPa-
28/09/2021 08:286.2 °C93 %5.0 °C-ONO5 km/h6.1 1026 hPa-
28/09/2021 08:146.2 °C92 %5.0 °C-ONO5 km/h6.1 1026 hPa-
28/09/2021 07:596.2 °C92 %5.0 °C-ONO5 km/h6.1 1026 hPa-
28/09/2021 07:446.3 °C92 %5.0 °C-ONO5 km/h6.1 1026 hPa-
28/09/2021 07:296.4 °C92 %5.0 °C-ONO5 km/h6.7 1026 hPa-
28/09/2021 07:146.5 °C92 %5.6 °C-ONO5 km/h6.7 1026 hPa-
28/09/2021 06:596.5 °C92 %5.6 °C-ONO5 km/h6.7 1026 hPa-
28/09/2021 06:446.6 °C92 %5.6 °C-ONO5 km/h6.7 1026 hPa-
28/09/2021 06:306.7 °C92 %5.6 °C-ONO5 km/h6.7 1025 hPa-
28/09/2021 06:156.7 °C91 %5.6 °C-ONO5 km/h6.7 1025 hPa-
28/09/2021 06:006.7 °C91 %5.6 °C-ONO5 km/h6.7 1026 hPa-
28/09/2021 05:456.8 °C91 %5.6 °C-ONO5 km/h6.7 1026 hPa-
28/09/2021 05:307.0 °C91 %5.6 °C-ONO5 km/h7.2 1026 hPa-
28/09/2021 05:147.2 °C91 %6.1 °C-ONO5 km/h7.2 1026 hPa-
28/09/2021 04:597.4 °C91 %6.1 °C-ONO5 km/h7.2 1026 hPa-
28/09/2021 04:447.6 °C91 %6.1 °C-ONO5 km/h7.8 1026 hPa-
28/09/2021 04:297.6 °C90 %6.1 °C-ONO5 km/h7.8 1026 hPa-
28/09/2021 04:147.7 °C90 %6.1 °C-ONO5 km/h7.8 1026 hPa-
28/09/2021 03:597.8 °C89 %6.1 °C-ONO5 km/h7.8 1026 hPa-
28/09/2021 03:448.1 °C89 %6.7 °C-ONO5 km/h8.3 1026 hPa-
28/09/2021 03:298.4 °C88 %6.7 °C-ONO5 km/h8.3 1026 hPa-
28/09/2021 03:148.8 °C88 %7.2 °C-ONO5 km/h8.9 1027 hPa-
28/09/2021 02:599.2 °C88 %7.2 °C-ONO5 km/h9.4 1027 hPa-
28/09/2021 02:449.7 °C89 %7.8 °C-ONO5 km/h9.4 1027 hPa-
28/09/2021 02:299.9 °C89 %8.3 °C-ONO5 km/h10.0 1027 hPa-
28/09/2021 02:1410.1 °C90 %8.3 °C-ONO5 km/h10.0 1027 hPa-
28/09/2021 01:5910.2 °C90 %8.9 °C5 km/hONO5 km/h9.4 1027 hPa-
28/09/2021 01:4410.3 °C90 %8.9 °C2 km/hONO5 km/h10.6 1027 hPa-
28/09/2021 01:2910.4 °C91 %8.9 °C2 km/hONO5 km/h10.6 1026 hPa-
28/09/2021 01:1410.4 °C91 %8.9 °C-ONO5 km/h10.6 1026 hPa-
28/09/2021 00:5910.4 °C91 %8.9 °C2 km/hONO3 km/h10.6 1026 hPa-
28/09/2021 00:4410.3 °C91 %8.9 °C2 km/h--10.6 1026 hPa-
28/09/2021 00:2910.3 °C90 %8.9 °C---10.6 1026 hPa-
28/09/2021 00:1410.4 °C90 %8.9 °C---10.6 1026 hPa-


Minima :

Température : 6.2 °C
Humidité : 58 %
Point de rosée : 5.0 °C
Vent moyen : 2 km/h
Windchill : 6.1
Pression atm. : 1022 hPa
Maxima :

Température : 20.0 °C
Humidité : 97 %
Point de rosée : 12.8 °C
Vent moyen : 8 km/h
Windchill : 20.0
Pression atm. : 1027 hPa
Rafales max : 13 km/h
Cumul de pluie sur 24H : 0 mm

Orçay est une commune du département Loir-et-Cher (41).
La station météorologique du réseau de l'association la plus proche de Orçay est celle de Vierzon



Icône Facebook Association Météo Centre Icône Twitter Association Météo Centre Icône Chaîne Youtube Association Météo Centre Icône contact Association Météo Centre Icône Insta Association Météo Centre